Time;durP1;ratioP1;P1;durP2;ratioP2;P2;SDS_P1;SDS_P2;PMS_P1;PMS_P2;Temp;Humidity;BMP_temperature;BMP_pressure;BME280_temperature;BME280_humidity;BME280_pressure;Samples;Min_cycle;Max_cycle;Signal;HPM_P1;HPM_P2
2022/03/12 00:00:57;;;;;;;40.00;18.80;;;;;;;-2.02;41.99;101798.94;5017373;28;20103;-71
2022/03/12 00:03:23;;;;;;;48.25;21.30;;;;;;;-2.06;42.42;101798.81;5035060;28;20033;-72
2022/03/12 00:05:54;;;;;;;53.97;20.63;;;;;;;-2.04;43.05;101801.25;5033857;28;20052;-72
2022/03/12 00:08:42;;;;;;;53.63;21.98;;;;;;;-2.03;42.83;101794.50;5033574;28;20026;-72
2022/03/12 00:11:10;;;;;;;50.92;22.27;;;;;;;-2.00;42.53;101793.78;5033389;28;20040;-71
2022/03/12 00:13:35;;;;;;;49.30;20.27;;;;;;;-2.05;42.67;101800.44;5033883;28;20393;-72
2022/03/12 00:16:12;;;;;;;47.20;19.98;;;;;;;-2.24;42.62;101776.00;5032679;28;20579;-72
2022/03/12 00:18:44;;;;;;;49.97;20.83;;;;;;;-2.20;42.98;101793.66;5031593;28;20429;-72
2022/03/12 00:21:15;;;;;;;47.42;20.95;;;;;;;-2.25;43.00;101793.09;5016234;28;20030;-72
2022/03/12 00:23:50;;;;;;;52.22;22.15;;;;;;;-2.28;43.33;101791.84;5034292;28;20029;-72
2022/03/12 00:26:17;;;;;;;53.35;21.70;;;;;;;-2.31;43.24;101791.72;5034170;28;20045;-71
2022/03/12 00:28:43;;;;;;;53.67;20.55;;;;;;;-2.34;43.27;101784.88;5000844;28;20075;-73
2022/03/12 00:31:11;;;;;;;42.55;19.42;;;;;;;-2.28;43.03;101785.44;5033630;28;20033;-73
2022/03/12 00:33:37;;;;;;;43.92;19.80;;;;;;;-2.24;43.32;101786.34;5000785;28;20083;-71
2022/03/12 00:36:04;;;;;;;46.15;19.83;;;;;;;-2.23;43.15;101786.00;5033250;28;20041;-73
2022/03/12 00:38:31;;;;;;;42.00;18.38;;;;;;;-2.21;42.96;101785.63;5016819;28;20040;-71
2022/03/12 00:40:57;;;;;;;44.75;19.98;;;;;;;-2.26;43.22;101788.69;5016638;28;20458;-72
2022/03/12 00:43:24;;;;;;;35.53;19.23;;;;;;;-2.30;42.79;101787.78;5033221;28;20033;-72
2022/03/12 00:45:52;;;;;;;43.85;18.63;;;;;;;-2.27;42.58;101792.66;5033355;28;20032;-71
2022/03/12 00:48:32;;;;;;;45.22;17.90;;;;;;;-2.34;43.03;101778.50;5033216;28;20036;-73
2022/03/12 00:50:58;;;;;;;39.15;18.05;;;;;;;-2.34;42.90;101779.31;5016557;28;20476;-73
2022/03/12 00:53:24;;;;;;;41.20;17.60;;;;;;;-2.35;43.09;101782.44;4999897;28;20061;-71
2022/03/12 00:55:50;;;;;;;40.28;17.05;;;;;;;-2.39;43.70;101781.53;5019400;28;20477;-72
2022/03/12 00:58:30;;;;;;;40.95;18.48;;;;;;;-2.45;43.92;101786.56;5035930;28;20025;-73
2022/03/12 01:00:55;;;;;;;43.45;18.77;;;;;;;-2.46;43.84;101779.34;5035063;28;20075;-72
2022/03/12 01:03:21;;;;;;;37.70;17.70;;;;;;;-2.47;43.77;101776.94;5017689;28;20029;-72
2022/03/12 01:05:49;;;;;;;42.92;18.75;;;;;;;-2.52;43.58;101786.34;5035185;28;20029;-72
2022/03/12 01:08:16;;;;;;;46.03;18.80;;;;;;;-2.58;43.91;101786.94;5035851;28;20029;-72
2022/03/12 01:10:43;;;;;;;40.10;18.17;;;;;;;-2.67;43.91;101784.31;5016770;28;20512;-71
2022/03/12 01:13:13;;;;;;;41.03;18.75;;;;;;;-2.69;44.22;101784.66;5033874;28;20330;-71
2022/03/12 01:15:40;;;;;;;43.63;18.25;;;;;;;-2.73;43.79;101788.50;5032107;28;20037;-72
2022/03/12 01:18:11;;;;;;;40.63;18.10;;;;;;;-2.77;44.62;101791.19;5016282;28;20048;-73
2022/03/12 01:20:36;;;;;;;36.90;18.33;;;;;;;-2.79;44.71;101787.94;5032726;28;20466;-71
2022/03/12 01:23:04;;;;;;;40.40;19.35;;;;;;;-2.83;44.90;101787.00;5033467;28;20090;-71
2022/03/12 01:25:30;;;;;;;43.15;18.15;;;;;;;-2.80;44.21;101782.69;5032623;28;20021;-70
2022/03/12 01:28:04;;;;;;;44.35;19.27;;;;;;;-2.85;44.64;101782.94;5015952;28;20100;-72
2022/03/12 01:30:44;;;;;;;46.35;20.30;;;;;;;-2.88;45.52;101783.66;5032507;28;20036;-71
2022/03/12 01:33:24;;;;;;;45.67;19.10;;;;;;;-2.89;45.41;101776.44;5032235;28;20493;-73
2022/03/12 01:35:51;;;;;;;40.78;18.20;;;;;;;-2.88;45.57;101776.13;5015793;28;20029;-73
2022/03/12 01:38:17;;;;;;;41.70;18.15;;;;;;;-2.91;45.46;101762.84;5015645;28;20049;-71
2022/03/12 01:40:42;;;;;;;44.95;17.98;;;;;;;-2.88;45.10;101762.19;5033597;28;20026;-71
2022/03/12 01:43:09;;;;;;;41.28;19.05;;;;;;;-2.88;45.40;101772.50;5032253;28;20079;-71
2022/03/12 01:45:36;;;;;;;43.10;19.17;;;;;;;-2.89;45.64;101774.47;5032048;28;20040;-72
2022/03/12 01:48:06;;;;;;;51.15;20.30;;;;;;;-2.92;45.20;101766.84;5016201;28;20048;-72
2022/03/12 01:50:34;;;;;;;42.35;19.88;;;;;;;-2.97;45.73;101769.88;4999529;28;20401;-73
2022/03/12 01:53:03;;;;;;;44.50;19.08;;;;;;;-2.96;45.78;101765.09;5031863;28;20076;-70
2022/03/12 01:55:30;;;;;;;42.03;19.02;;;;;;;-3.04;46.01;101766.84;5032110;28;20484;-72
2022/03/12 01:58:02;;;;;;;43.17;17.50;;;;;;;-3.06;46.19;101760.81;5031738;28;20116;-72
2022/03/12 02:00:41;;;;;;;36.78;19.00;;;;;;;-3.06;45.90;101752.47;5015302;28;20029;-72
2022/03/12 02:03:08;;;;;;;43.65;18.08;;;;;;;-3.05;46.38;101752.09;5032315;28;20030;-70
2022/03/12 02:05:34;;;;;;;45.28;18.92;;;;;;;-3.08;46.44;101750.03;5014606;28;20035;-72
2022/03/12 02:08:08;;;;;;;44.83;19.58;;;;;;;-3.08;46.39;101754.78;5031898;28;20104;-72
2022/03/12 02:10:39;;;;;;;46.22;20.30;;;;;;;-3.03;45.79;101750.94;5014175;28;20041;-72
2022/03/12 02:13:17;;;;;;;40.90;19.30;;;;;;;-3.05;45.86;101737.34;5014135;28;20064;-71
2022/03/12 02:15:43;;;;;;;49.35;20.13;;;;;;;-3.06;45.91;101730.19;5032589;28;20521;-72
2022/03/12 02:18:17;;;;;;;45.42;19.45;;;;;;;-3.08;45.90;101733.31;5032258;28;20055;-72
2022/03/12 02:20:43;;;;;;;50.88;19.40;;;;;;;-3.01;46.10;101741.09;5015459;28;20029;-71
2022/03/12 02:23:10;;;;;;;42.00;20.48;;;;;;;-3.02;46.02;101724.72;5032004;28;20021;-72
2022/03/12 02:25:35;;;;;;;43.88;19.23;;;;;;;-2.99;46.12;101733.16;5031511;28;20481;-72
2022/03/12 02:28:17;;;;;;;45.85;19.63;;;;;;;-3.02;46.35;101733.88;5018068;28;20037;-73
2022/03/12 02:30:52;;;;;;;49.42;21.45;;;;;;;-3.01;46.16;101727.16;5036410;28;20037;-72
2022/03/12 02:33:37;;;;;;;49.25;19.65;;;;;;;-3.02;46.66;101731.09;5006058;28;20029;-71
2022/03/12 02:36:13;;;;;;;44.53;19.17;;;;;;;-3.02;46.12;101717.16;5022799;28;20030;-71
2022/03/12 02:38:40;;;;;;;42.55;19.90;;;;;;;-3.06;46.33;101730.97;5036274;28;20384;-71
2022/03/12 02:41:11;;;;;;;39.83;17.52;;;;;;;-3.09;46.58;101726.09;5002787;28;20124;-70
2022/03/12 02:43:41;;;;;;;45.08;20.15;;;;;;;-3.13;46.73;101724.38;5019289;28;20026;-72
2022/03/12 02:46:07;;;;;;;41.00;19.73;;;;;;;-3.13;46.95;101729.94;5036472;28;20543;-72
2022/03/12 02:48:32;;;;;;;48.75;20.45;;;;;;;-3.24;46.84;101717.66;5036612;28;20026;-71
2022/03/12 02:51:01;;;;;;;44.25;18.80;;;;;;;-3.23;46.26;101725.66;5034875;28;20042;-70
2022/03/12 02:53:29;;;;;;;43.45;19.77;;;;;;;-3.23;46.84;101734.03;5035066;28;20068;-71
2022/03/12 02:55:55;;;;;;;44.30;18.48;;;;;;;-3.31;47.27;101711.88;5035658;28;20045;-71
2022/03/12 02:58:23;;;;;;;48.85;19.45;;;;;;;-3.30;47.37;101721.84;5034737;28;20474;-71
2022/03/12 03:00:50;;;;;;;36.92;16.63;;;;;;;-3.29;47.63;101724.28;5034971;28;20035;-71
2022/03/12 03:03:17;;;;;;;46.05;18.42;;;;;;;-3.28;47.01;101727.88;5034746;28;20041;-73
2022/03/12 03:06:03;;;;;;;36.80;17.67;;;;;;;-3.30;47.31;101724.63;5036050;28;20044;-71
2022/03/12 03:08:42;;;;;;;41.92;17.60;;;;;;;-3.29;46.88;101729.84;5036073;28;20033;-71
2022/03/12 03:11:13;;;;;;;44.30;20.25;;;;;;;-3.30;47.63;101725.44;5002183;28;20087;-71
2022/03/12 03:13:55;;;;;;;42.25;19.05;;;;;;;-3.29;47.27;101729.84;5034923;28;20025;-71
2022/03/12 03:16:21;;;;;;;;;;;;;;;-3.29;47.95;101727.06;5035267;28;20021;-71
2022/03/12 03:18:57;;;;;;;37.83;14.20;;;;;;;-3.35;47.53;101719.28;5034627;28;19908;-72
2022/03/12 03:21:26;;;;;;;40.50;14.93;;;;;;;-3.31;47.19;101720.22;5035831;28;20450;-72
2022/03/12 03:23:53;;;;;;;37.97;15.55;;;;;;;-3.35;47.46;101724.84;5018141;28;20040;-72
2022/03/12 03:26:42;;;;;;;34.95;15.82;;;;;;;-3.38;46.68;101722.78;5002232;28;20394;-71
2022/03/12 03:29:08;;;;;;;37.55;16.65;;;;;;;-3.41;47.46;101726.28;5034463;28;20393;-71
2022/03/12 03:31:34;;;;;;;34.13;14.30;;;;;;;-3.35;46.60;101724.84;5018172;28;20087;-70
2022/03/12 03:34:00;;;;;;;38.90;16.45;;;;;;;-3.41;47.40;101712.34;5018100;28;20124;-72
2022/03/12 03:36:26;;;;;;;38.53;14.95;;;;;;;-3.35;47.86;101722.06;5017717;28;20116;-71
2022/03/12 03:38:52;;;;;;;36.00;14.50;;;;;;;-3.31;47.00;101721.06;5017030;28;20539;-71
2022/03/12 03:41:19;;;;;;;32.97;14.52;;;;;;;-3.34;47.17;101715.34;5035869;28;20037;-70
2022/03/12 03:43:47;;;;;;;37.00;15.32;;;;;;;-3.33;47.67;101708.63;5035651;28;20059;-71
2022/03/12 03:46:18;;;;;;;37.65;16.80;;;;;;;-3.35;47.66;101717.31;5017677;28;20045;-71
2022/03/12 03:48:46;;;;;;;32.53;14.33;;;;;;;-3.39;47.05;101723.94;5017508;28;20117;-71
2022/03/12 03:51:13;;;;;;;35.72;15.55;;;;;;;-3.36;47.44;101726.84;5033749;28;20295;-71
2022/03/12 03:53:40;;;;;;;57.45;15.25;;;;;;;-3.40;47.49;101716.78;5033810;28;20057;-71
2022/03/12 03:56:07;;;;;;;37.50;14.68;;;;;;;-3.41;47.03;101715.94;5035039;28;20410;-69
2022/03/12 03:58:34;;;;;;;35.33;15.75;;;;;;;-3.42;46.92;101721.88;5034083;28;20476;-71
2022/03/12 04:01:03;;;;;;;34.65;13.55;;;;;;;-3.41;46.91;101727.09;5035187;28;20029;-71
2022/03/12 04:03:32;;;;;;;45.42;16.20;;;;;;;-3.42;48.03;101725.47;5017241;28;20026;-71
2022/03/12 04:05:58;;;;;;;38.90;16.92;;;;;;;-3.43;47.61;101731.38;5034002;28;20045;-72
2022/03/12 04:08:24;;;;;;;39.25;15.48;;;;;;;-3.51;48.14;101735.91;5017440;28;20044;-71
2022/03/12 04:10:50;;;;;;;42.63;17.10;;;;;;;-3.57;47.38;101740.91;5033628;28;20034;-71
2022/03/12 04:13:21;;;;;;;41.72;17.95;;;;;;;-3.54;47.61;101742.97;5033728;28;20021;-71
2022/03/12 04:15:48;;;;;;;40.25;15.18;;;;;;;-3.52;48.06;101746.22;5033749;28;20033;-71
2022/03/12 04:18:21;;;;;;;33.20;15.73;;;;;;;-3.60;47.57;101733.22;5034577;28;20375;-71
2022/03/12 04:20:47;;;;;;;38.10;15.75;;;;;;;-3.58;47.45;101746.81;5033818;28;20027;-71
2022/03/12 04:23:19;;;;;;;39.67;15.15;;;;;;;-3.52;48.06;101739.84;5033482;28;20041;-71
2022/03/12 04:25:46;;;;;;;38.83;15.43;;;;;;;-3.51;48.41;101730.34;5033641;28;20057;-71
2022/03/12 04:28:11;;;;;;;35.97;16.30;;;;;;;-3.57;48.07;101734.50;5033502;28;20428;-71
2022/03/12 04:30:38;;;;;;;44.67;17.38;;;;;;;-3.61;48.24;101728.03;5034715;28;20109;-71
2022/03/12 04:33:07;;;;;;;42.17;17.02;;;;;;;-3.62;47.95;101735.56;5033716;28;20036;-72
2022/03/12 04:35:33;;;;;;;36.88;15.15;;;;;;;-3.62;48.39;101740.31;5033419;28;20030;-71
2022/03/12 04:37:59;;;;;;;36.50;15.65;;;;;;;-3.63;47.75;101731.16;5034718;28;20146;-72
2022/03/12 04:40:26;;;;;;;40.88;16.77;;;;;;;-3.56;47.86;101734.19;5034159;28;20075;-71
2022/03/12 04:43:05;;;;;;;35.60;14.32;;;;;;;-3.53;48.43;101729.88;5010649;28;20062;-70
2022/03/12 04:45:46;;;;;;;37.35;14.70;;;;;;;-3.57;48.08;101728.94;5014785;28;20029;-72
2022/03/12 04:48:30;;;;;;;43.13;16.27;;;;;;;-3.52;48.66;101732.31;5023036;28;20574;-71
2022/03/12 04:50:56;;;;;;;34.65;15.10;;;;;;;-3.51;48.11;101724.78;5016109;28;20037;-71
2022/03/12 04:53:23;;;;;;;36.33;14.48;;;;;;;-3.55;48.47;101721.84;4999989;28;20062;-70
2022/03/12 04:55:49;;;;;;;39.85;16.13;;;;;;;-3.55;48.58;101727.41;5034392;28;20029;-72
2022/03/12 04:58:15;;;;;;;34.13;16.10;;;;;;;-3.61;49.53;101723.28;5016557;28;20179;-71
2022/03/12 05:00:50;;;;;;;37.95;19.63;;;;;;;-3.59;48.84;101723.72;5033965;28;20053;-72
2022/03/12 05:03:20;;;;;;;40.22;16.13;;;;;;;-3.59;49.25;101720.94;5032842;28;20481;-73
2022/03/12 05:05:51;;;;;;;40.85;16.83;;;;;;;-3.57;49.10;101721.41;5024022;28;20467;-70
2022/03/12 05:08:28;;;;;;;38.55;15.98;;;;;;;-3.52;49.43;101726.75;5019498;28;20037;-72
2022/03/12 05:10:56;;;;;;;35.95;16.00;;;;;;;-3.50;48.91;101720.81;5019265;28;20053;-72
2022/03/12 05:13:30;;;;;;;39.58;15.15;;;;;;;-3.51;48.73;101722.81;5036651;28;20528;-71
2022/03/12 05:15:57;;;;;;;37.63;16.90;;;;;;;-3.52;49.60;101718.41;5017654;28;20029;-71
2022/03/12 05:18:26;;;;;;;36.35;15.68;;;;;;;-3.52;49.52;101718.41;5018532;28;20033;-71
2022/03/12 05:20:52;;;;;;;39.78;15.13;;;;;;;-3.50;49.66;101723.59;5017799;28;20456;-70
2022/03/12 05:23:19;;;;;;;32.97;15.35;;;;;;;-3.45;49.70;101719.78;5017741;28;20061;-71
2022/03/12 05:25:47;;;;;;;39.10;15.45;;;;;;;-3.49;49.64;101723.25;5033872;28;20029;-71
2022/03/12 05:28:16;;;;;;;40.10;16.17;;;;;;;-3.50;49.21;101716.06;5016006;28;20037;-70
2022/03/12 05:31:04;;;;;;;39.13;16.02;;;;;;;-3.46;49.68;101709.81;5032368;28;20037;-70
2022/03/12 05:33:31;;;;;;;37.90;16.00;;;;;;;-3.42;49.79;101713.50;5032162;28;20029;-72
2022/03/12 05:36:01;;;;;;;33.83;15.13;;;;;;;-3.41;49.89;101712.34;5032402;28;20026;-71
2022/03/12 05:38:34;;;;;;;37.65;15.50;;;;;;;-3.36;49.68;101717.69;5015955;28;20128;-72
2022/03/12 05:41:01;;;;;;;34.28;16.80;;;;;;;-3.33;50.46;101708.63;5016713;28;20386;-72
2022/03/12 05:43:31;;;;;;;44.08;18.30;;;;;;;-3.32;50.52;101713.03;5032526;28;20057;-72
2022/03/12 05:45:59;;;;;;;36.35;16.58;;;;;;;-3.28;50.15;101722.31;5033743;28;20071;-73
2022/03/12 05:48:27;;;;;;;37.33;16.33;;;;;;;-3.26;50.68;101712.44;5033308;28;20539;-71
2022/03/12 05:50:54;;;;;;;41.10;16.08;;;;;;;-3.21;50.61;101720.56;5032171;28;20537;-72
2022/03/12 05:53:22;;;;;;;41.72;17.08;;;;;;;-3.13;49.97;101729.94;5044764;28;20053;-71
2022/03/12 05:55:48;;;;;;;35.72;16.02;;;;;;;-3.08;49.89;101715.78;5053270;28;20082;-71
2022/03/12 05:58:17;;;;;;;34.85;15.90;;;;;;;-3.00;50.36;101714.81;5035213;28;20020;-71
2022/03/12 06:00:43;;;;;;;35.00;16.10;;;;;;;-2.76;49.43;101717.53;5019366;28;20025;-72
2022/03/12 06:03:10;;;;;;;41.35;16.65;;;;;;;-2.52;49.54;101704.66;5037538;28;20017;-72
2022/03/12 06:05:41;;;;;;;35.88;15.25;;;;;;;-2.39;48.67;101714.59;5054960;28;20115;-72
2022/03/12 06:08:09;;;;;;;37.53;16.75;;;;;;;-2.34;48.77;101715.16;5040249;28;20032;-69
2022/03/12 06:10:37;;;;;;;42.67;15.88;;;;;;;-2.30;48.46;101712.44;5022866;28;20397;-70
2022/03/12 06:13:06;;;;;;;33.35;15.68;;;;;;;-2.14;48.06;101721.66;5039473;28;20025;-72
2022/03/12 06:15:33;;;;;;;36.33;15.50;;;;;;;-1.48;48.21;101715.38;5039846;28;20021;-73
2022/03/12 06:17:59;;;;;;;44.53;17.92;;;;;;;0.14;44.68;101709.56;5006779;28;20037;-73
2022/03/12 06:20:26;;;;;;;43.08;17.33;;;;;;;1.27;43.29;101699.25;5022682;28;20016;-73
2022/03/12 06:22:54;;;;;;;41.35;16.85;;;;;;;1.49;40.97;101706.75;5039080;28;20123;-73
2022/03/12 06:25:20;;;;;;;41.83;18.40;;;;;;;0.97;41.84;101707.69;5039484;28;20082;-74
2022/03/12 06:27:53;;;;;;;37.47;16.50;;;;;;;0.55;42.00;101702.22;5022063;28;20037;-72
2022/03/12 06:30:24;;;;;;;37.92;17.17;;;;;;;0.23;42.94;101698.91;5054595;28;20033;-73
2022/03/12 06:32:52;;;;;;;38.55;16.85;;;;;;;1.54;42.38;101699.97;5039895;28;20496;-72
2022/03/12 06:35:18;;;;;;;36.97;17.25;;;;;;;4.17;36.50;101694.88;5023487;28;20029;-73
2022/03/12 06:37:45;;;;;;;37.28;16.83;;;;;;;6.78;33.20;101690.16;5039784;28;20036;-74
2022/03/12 06:40:14;;;;;;;40.42;16.67;;;;;;;7.65;30.19;101683.91;5023444;28;20024;-75
2022/03/12 06:42:46;;;;;;;45.17;17.20;;;;;;;9.37;27.56;101675.75;5039877;28;20087;-74
2022/03/12 06:45:15;;;;;;;38.70;17.67;;;;;;;11.26;24.38;101670.78;5022940;28;20501;-72
2022/03/12 06:47:46;;;;;;;36.28;17.83;;;;;;;11.87;22.89;101672.69;5038981;28;20481;-73
2022/03/12 06:50:15;;;;;;;47.53;20.05;;;;;;;10.23;24.23;101669.81;5022199;28;20434;-74
2022/03/12 06:52:45;;;;;;;42.03;17.55;;;;;;;9.41;25.31;101665.13;5002257;28;20053;-77
2022/03/12 06:55:11;;;;;;;36.38;18.10;;;;;;;8.99;25.59;101675.28;5035336;28;20022;-74
2022/03/12 06:57:58;;;;;;;39.53;18.60;;;;;;;11.50;23.92;101659.88;5036578;28;20044;-74
2022/03/12 07:00:29;;;;;;;42.70;20.23;;;;;;;14.73;20.35;101649.09;5018276;28;20374;-73
2022/03/12 07:02:55;;;;;;;36.92;19.55;;;;;;;16.63;18.40;101647.13;5018847;28;20037;-75
2022/03/12 07:05:21;;;;;;;39.92;19.20;;;;;;;18.45;16.54;101648.25;5034918;28;20029;-74
2022/03/12 07:07:56;;;;;;;44.20;18.85;;;;;;;19.56;14.74;101648.19;5018508;28;20482;-74
2022/03/12 07:10:22;;;;;;;59.67;22.98;;;;;;;20.36;14.67;101652.09;5036037;28;20094;-71
2022/03/12 07:12:48;;;;;;;51.33;20.52;;;;;;;21.38;13.79;101655.81;5002571;28;20041;-74
2022/03/12 07:15:17;;;;;;;56.78;23.30;;;;;;;22.45;12.93;101640.91;5021895;28;20051;-71
2022/03/12 07:17:46;;;;;;;44.35;22.00;;;;;;;23.25;12.61;101646.78;5034705;28;20048;-72
2022/03/12 07:20:13;;;;;;;45.60;22.25;;;;;;;24.43;11.71;101642.53;5030259;28;20232;-71
2022/03/12 07:22:39;;;;;;;49.55;23.77;;;;;;;25.36;11.23;101642.00;5012598;28;20088;-72
2022/03/12 07:25:07;;;;;;;47.13;21.88;;;;;;;25.51;10.74;101640.75;5032508;28;20025;-70
2022/03/12 07:27:34;;;;;;;45.30;20.42;;;;;;;25.14;10.65;101642.31;5015923;28;20045;-71
2022/03/12 07:30:00;;;;;;;40.30;21.38;;;;;;;25.57;10.42;101642.28;5024490;28;20463;-71
2022/03/12 07:32:27;;;;;;;40.55;22.05;;;;;;;26.11;9.70;101659.47;5027357;28;20490;-70
2022/03/12 07:34:53;;;;;;;44.38;22.30;;;;;;;26.74;9.86;101648.31;5015729;28;20088;-71
2022/03/12 07:37:20;;;;;;;41.05;21.65;;;;;;;27.12;9.36;101640.91;5023583;28;20049;-71
2022/03/12 07:39:47;;;;;;;58.53;22.85;;;;;;;26.53;9.61;101631.41;5019142;28;20061;-71
2022/03/12 07:42:14;;;;;;;47.58;22.23;;;;;;;26.31;9.02;101642.72;5015792;28;20041;-72
2022/03/12 07:44:39;;;;;;;67.25;25.08;;;;;;;25.51;9.80;101632.78;5014183;28;20041;-71
2022/03/12 07:47:07;;;;;;;81.90;26.48;;;;;;;25.89;9.68;101627.72;5013974;28;20073;-71
2022/03/12 07:49:34;;;;;;;54.53;23.50;;;;;;;25.07;9.57;101637.09;5015178;28;20033;-72
2022/03/12 07:52:10;;;;;;;59.95;23.98;;;;;;;24.25;9.77;101630.81;5012417;28;20065;-71
2022/03/12 07:54:38;;;;;;;59.47;24.75;;;;;;;23.06;10.32;101637.88;5016365;28;20491;-71
2022/03/12 07:57:10;;;;;;;62.15;23.98;;;;;;;21.14;11.97;101632.28;5034877;28;20091;-70
2022/03/12 07:59:37;;;;;;;52.90;23.50;;;;;;;17.81;13.56;101645.38;5035302;28;20112;-72
2022/03/12 08:02:03;;;;;;;52.40;25.25;;;;;;;15.14;16.50;101647.69;5000742;28;20120;-72
2022/03/12 08:04:33;;;;;;;64.53;24.50;;;;;;;14.18;17.90;101650.97;5016778;28;20052;-72
2022/03/12 08:07:02;;;;;;;84.15;28.30;;;;;;;14.67;17.59;101650.97;5034956;28;20056;-74
2022/03/12 08:09:28;;;;;;;60.42;23.52;;;;;;;15.46;17.50;101649.91;5035104;28;20033;-75
2022/03/12 08:11:54;;;;;;;46.88;22.85;;;;;;;16.13;16.75;101643.06;5001200;28;20030;-75
2022/03/12 08:14:22;;;;;;;50.75;23.98;;;;;;;16.28;16.70;101643.94;5017077;28;20033;-74
2022/03/12 08:16:49;;;;;;;60.75;23.17;;;;;;;16.30;16.77;101644.25;5017783;28;20416;-74
2022/03/12 08:19:15;;;;;;;66.72;24.08;;;;;;;16.02;16.70;101642.00;5034700;28;20029;-75
2022/03/12 08:21:42;;;;;;;93.00;25.40;;;;;;;15.92;16.96;101639.16;5034569;28;20036;-75
2022/03/12 08:24:09;;;;;;;44.35;22.95;;;;;;;15.57;17.48;101640.03;5017457;28;20029;-76
2022/03/12 08:26:34;;;;;;;72.80;24.45;;;;;;;15.30;17.87;101638.75;5034724;28;20032;-76
2022/03/12 08:29:01;;;;;;;44.92;20.67;;;;;;;15.24;18.43;101640.69;5017178;28;20388;-75
2022/03/12 08:31:28;;;;;;;45.85;21.35;;;;;;;15.26;17.90;101641.00;5034638;28;20036;-75
2022/03/12 08:33:54;;;;;;;36.22;20.80;;;;;;;15.42;17.68;101639.88;5016888;28;20116;-75
2022/03/12 08:36:19;;;;;;;44.97;21.92;;;;;;;15.34;17.96;101638.59;5000944;28;20057;-75
2022/03/12 08:38:45;;;;;;;45.20;21.95;;;;;;;15.33;17.40;101634.13;5017948;28;20060;-77
2022/03/12 08:41:11;;;;;;;42.72;20.05;;;;;;;15.35;17.73;101640.97;5020736;28;20053;-77
2022/03/12 08:43:37;;;;;;;41.10;19.80;;;;;;;14.86;17.37;101641.13;5019820;28;20030;-77
2022/03/12 08:46:05;;;;;;;45.38;21.77;;;;;;;14.16;18.70;101639.16;5004175;28;20048;-76
2022/03/12 08:48:38;;;;;;;39.45;20.10;;;;;;;13.98;19.48;101636.22;5035157;28;20552;-75
2022/03/12 08:51:04;;;;;;;37.92;19.95;;;;;;;13.91;19.17;101631.59;5000312;28;20348;-74
2022/03/12 08:53:30;;;;;;;41.17;21.17;;;;;;;13.88;19.51;101629.66;5012513;28;20057;-74
2022/03/12 08:55:57;;;;;;;43.88;22.02;;;;;;;13.69;19.61;101628.75;5014343;28;20169;-74
2022/03/12 08:58:25;;;;;;;39.80;20.13;;;;;;;13.71;19.48;101631.97;5012833;28;20026;-74
2022/03/12 09:00:52;;;;;;;50.13;21.75;;;;;;;13.23;20.02;101639.09;5012692;28;20031;-72
2022/03/12 09:03:20;;;;;;;47.88;21.63;;;;;;;13.16;20.49;101630.78;5014781;28;20044;-74
2022/03/12 09:05:47;;;;;;;45.70;19.63;;;;;;;13.19;20.19;101626.97;5013803;28;20048;-75
2022/03/12 09:08:27;;;;;;;42.97;19.55;;;;;;;12.85;20.36;101636.34;5013360;28;20066;-75
2022/03/12 09:10:55;;;;;;;42.88;22.45;;;;;;;12.79;20.73;101629.63;5014542;28;20038;-75
2022/03/12 09:13:21;;;;;;;40.28;21.70;;;;;;;12.41;21.25;101640.34;5013829;28;20049;-75
2022/03/12 09:15:51;;;;;;;44.20;21.75;;;;;;;12.16;21.18;101635.44;5014006;28;20045;-76
2022/03/12 09:18:17;;;;;;;49.28;20.60;;;;;;;12.06;21.76;101643.09;5014278;28;20037;-76
2022/03/12 09:20:47;;;;;;;48.78;19.90;;;;;;;11.61;21.91;101636.75;5016852;28;20032;-74
2022/03/12 09:23:19;;;;;;;59.28;23.25;;;;;;;11.31;22.98;101632.34;5019360;28;20029;-76
2022/03/12 09:25:47;;;;;;;45.95;21.45;;;;;;;11.17;22.62;101636.41;5025275;28;20028;-78
2022/03/12 09:28:13;;;;;;;32.33;18.63;;;;;;;11.04;22.84;101631.91;5011658;28;20041;-78
2022/03/12 09:30:39;;;;;;;35.20;18.58;;;;;;;11.07;23.11;101625.28;5016321;28;20022;-77
2022/03/12 09:33:06;;;;;;;42.17;20.50;;;;;;;11.00;23.08;101631.22;4997835;28;20052;-77
2022/03/12 09:35:33;;;;;;;40.33;20.13;;;;;;;11.04;22.65;101632.72;4980062;28;20458;-76
2022/03/12 09:37:59;;;;;;;46.35;19.52;;;;;;;11.04;22.41;101620.50;5011692;28;20041;-77
2022/03/12 09:40:26;;;;;;;38.08;18.83;;;;;;;11.03;22.60;101621.75;5013093;28;20028;-77
2022/03/12 09:42:54;;;;;;;37.92;19.50;;;;;;;11.17;23.11;101616.44;4980167;28;20424;-78
2022/03/12 09:45:23;;;;;;;37.90;20.48;;;;;;;11.23;22.73;101631.75;5010199;28;20059;-78
2022/03/12 09:47:58;;;;;;;42.58;21.23;;;;;;;11.17;23.20;101619.28;5012907;28;20109;-77
2022/03/12 09:50:24;;;;;;;46.13;20.52;;;;;;;11.20;23.57;101621.22;5013736;28;20053;-77
2022/03/12 09:52:52;;;;;;;42.40;20.20;;;;;;;11.15;23.86;101618.94;5018003;28;20045;-77
2022/03/12 09:55:19;;;;;;;37.35;18.45;;;;;;;11.16;23.26;101617.69;5033623;28;20466;-78
2022/03/12 09:57:45;;;;;;;43.53;19.88;;;;;;;11.27;23.37;101614.53;5027852;28;20033;-78
2022/03/12 10:00:12;;;;;;;38.30;18.98;;;;;;;11.18;23.64;101603.78;5024232;28;20032;-78
2022/03/12 10:02:39;;;;;;;41.78;17.65;;;;;;;11.23;23.53;101611.78;5006404;28;20026;-77
2022/03/12 10:05:11;;;;;;;40.58;18.75;;;;;;;11.05;24.14;101582.19;5024557;28;20504;-79
2022/03/12 10:07:41;;;;;;;38.33;17.80;;;;;;;11.03;23.12;101610.34;5039300;28;20025;-77
2022/03/12 10:10:17;;;;;;;33.40;18.40;;;;;;;10.80;21.96;101597.91;5016460;28;20036;-77
2022/03/12 10:13:03;;;;;;;44.17;19.45;;;;;;;10.53;22.78;101593.78;5030580;28;20034;-78
2022/03/12 10:15:28;;;;;;;38.22;19.10;;;;;;;10.47;22.87;101582.13;5032211;28;20025;-79
2022/03/12 10:17:54;;;;;;;37.80;17.92;;;;;;;10.65;23.77;101595.94;5002463;28;20024;-78
2022/03/12 10:20:20;;;;;;;34.88;17.38;;;;;;;10.70;23.51;101579.09;5004873;28;20334;-77
2022/03/12 10:22:50;;;;;;;44.55;18.92;;;;;;;10.90;23.52;101593.19;5022688;28;20404;-77
2022/03/12 10:25:16;;;;;;;34.30;18.17;;;;;;;10.95;22.83;101592.66;5007160;28;20456;-78
2022/03/12 10:27:42;;;;;;;46.50;17.73;;;;;;;10.88;23.90;101587.13;5008745;28;20385;-78
2022/03/12 10:30:10;;;;;;;38.90;19.17;;;;;;;10.98;23.64;101580.34;5023007;28;20037;-79
2022/03/12 10:32:50;;;;;;;43.30;17.52;;;;;;;11.04;24.00;101592.78;5024946;28;20094;-77
2022/03/12 10:35:21;;;;;;;35.47;16.90;;;;;;;10.87;22.51;101588.38;5010224;28;20418;-78
2022/03/12 10:37:48;;;;;;;34.05;16.55;;;;;;;10.58;23.02;101585.50;5036738;28;20037;-79
2022/03/12 10:40:24;;;;;;;36.35;17.08;;;;;;;10.30;23.45;101583.41;5018580;28;20029;-78
2022/03/12 10:43:05;;;;;;;42.95;17.10;;;;;;;10.00;22.82;101590.22;5025546;28;20100;-79
2022/03/12 10:45:37;;;;;;;45.50;18.63;;;;;;;9.69;23.98;101583.25;5035825;28;20032;-79
2022/03/12 10:48:05;;;;;;;35.53;17.33;;;;;;;9.85;25.05;101583.28;5053526;28;20033;-79
2022/03/12 10:50:34;;;;;;;31.25;16.10;;;;;;;10.04;24.08;101588.09;5056532;28;20064;-78
2022/03/12 10:53:05;;;;;;;32.75;17.02;;;;;;;10.08;23.82;101591.66;5056468;28;20052;-80
2022/03/12 10:55:34;;;;;;;27.60;14.15;;;;;;;9.97;23.31;101586.22;5053603;28;20112;-77
2022/03/12 10:58:24;;;;;;;28.45;13.25;;;;;;;9.77;22.67;101579.78;5038300;28;20032;-78
2022/03/12 11:00:56;;;;;;;31.40;14.85;;;;;;;9.55;23.11;101573.00;5038056;28;20049;-77
2022/03/12 11:03:37;;;;;;;29.48;13.10;;;;;;;9.50;22.72;101582.06;5056271;28;20508;-77
2022/03/12 11:06:05;;;;;;;30.30;14.63;;;;;;;9.31;22.88;101565.84;5040396;28;20083;-77
2022/03/12 11:08:33;;;;;;;28.80;14.23;;;;;;;9.38;24.81;101563.63;5021020;28;20033;-77
2022/03/12 11:11:11;;;;;;;27.50;13.20;;;;;;;9.20;23.37;101563.22;5056029;28;20465;-78
2022/03/12 11:13:40;;;;;;;33.95;13.98;;;;;;;9.02;23.82;101569.28;5052657;28;20373;-79
2022/03/12 11:16:19;;;;;;;33.30;13.80;;;;;;;8.98;23.19;101557.16;5032045;28;20060;-75
2022/03/12 11:19:10;;;;;;;30.05;13.88;;;;;;;8.91;24.35;101548.81;5035865;28;20025;-78